createdAt,value
2023-01-30T00:01:28.077Z,25.58
2023-01-30T00:03:00.147Z,28.25
2023-01-30T00:04:32.211Z,26.80
2023-01-30T00:06:04.562Z,22.77
2023-01-30T00:07:36.601Z,26.92
2023-01-30T00:09:12.897Z,25.93
2023-01-30T00:10:45.545Z,25.52
2023-01-30T00:12:17.513Z,26.00
2023-01-30T00:13:50.782Z,24.70
2023-01-30T00:15:22.755Z,25.08
2023-01-30T00:16:55.562Z,23.83
2023-01-30T00:18:27.507Z,26.05
2023-01-30T00:19:59.554Z,27.83
2023-01-30T00:21:31.503Z,25.73
2023-01-30T00:23:03.715Z,25.85
2023-01-30T00:24:37.712Z,27.05
2023-01-30T00:26:10.312Z,26.55
2023-01-30T00:27:43.460Z,25.63
2023-01-30T00:29:15.426Z,24.83
2023-01-30T00:30:54.612Z,26.03
2023-01-30T00:32:28.322Z,25.67
2023-01-30T00:34:02.672Z,25.02
2023-01-30T00:35:34.962Z,25.77
2023-01-30T00:37:08.639Z,25.10
2023-01-30T00:38:40.771Z,24.83
2023-01-30T00:40:13.008Z,25.33
2023-01-30T00:42:03.644Z,26.85
2023-01-30T00:43:54.536Z,25.73
2023-01-30T00:45:45.678Z,25.05
2023-01-30T00:47:17.756Z,26.10
2023-01-30T00:48:50.053Z,24.38
2023-01-30T00:50:42.760Z,28.15
2023-01-30T00:52:17.367Z,25.58
2023-01-30T00:53:49.385Z,26.92
2023-01-30T00:55:21.398Z,25.38
2023-01-30T00:56:53.415Z,26.10
2023-01-30T00:58:25.853Z,26.45
2023-01-30T00:59:57.909Z,25.20
2023-01-30T01:01:29.948Z,26.38
2023-01-30T01:03:02.308Z,25.20
2023-01-30T01:04:43.636Z,25.25
2023-01-30T01:06:16.517Z,24.85
2023-01-30T01:07:49.064Z,26.33
2023-01-30T01:09:21.066Z,26.83
2023-01-30T01:10:53.124Z,24.67
2023-01-30T01:12:25.263Z,24.88
2023-01-30T01:13:59.730Z,25.27
2023-01-30T01:15:31.889Z,25.25
2023-01-30T01:17:05.162Z,24.83
2023-01-30T01:18:37.361Z,25.90
2023-01-30T01:20:13.495Z,25.38
2023-01-30T01:21:45.677Z,25.50
2023-01-30T01:23:17.837Z,25.80
2023-01-30T01:24:50.078Z,25.48
2023-01-30T01:26:22.381Z,25.73
2023-01-30T01:27:55.323Z,24.98
2023-01-30T01:30:59.532Z,23.98
2023-01-30T01:32:32.816Z,24.67
2023-01-30T01:34:04.938Z,23.80
2023-01-30T01:35:41.385Z,26.77
2023-01-30T01:37:13.478Z,25.77
2023-01-30T01:38:47.750Z,24.48
2023-01-30T01:40:38.964Z,24.02
2023-01-30T01:42:12.335Z,25.02
2023-01-30T01:44:14.590Z,24.47
2023-01-30T01:45:48.279Z,23.77
2023-01-30T01:47:22.897Z,26.02
2023-01-30T01:48:57.157Z,25.92
2023-01-30T01:50:40.112Z,24.33
2023-01-30T01:52:15.703Z,23.63
2023-01-30T01:53:59.137Z,24.42
2023-01-30T01:55:31.789Z,25.15
2023-01-30T01:57:07.295Z,24.65
2023-01-30T01:58:48.201Z,23.48
2023-01-30T02:00:21.389Z,26.52
2023-01-30T02:01:56.816Z,27.23
2023-01-30T02:03:32.622Z,25.35
2023-01-30T02:05:06.889Z,26.02
2023-01-30T02:06:40.230Z,25.60
2023-01-30T02:08:22.369Z,25.58
2023-01-30T02:09:56.467Z,25.42
2023-01-30T02:11:51.384Z,22.00
2023-01-30T02:13:23.627Z,22.08
2023-01-30T02:14:57.981Z,27.52
2023-01-30T02:16:30.013Z,26.80
2023-01-30T02:18:02.566Z,24.27
2023-01-30T02:19:59.910Z,25.08
2023-01-30T02:21:43.794Z,24.88
2023-01-30T02:23:23.285Z,24.70
2023-01-30T02:25:32.407Z,25.88
2023-01-30T02:27:32.226Z,23.17
2023-01-30T02:29:25.782Z,23.80
2023-01-30T02:33:07.625Z,22.20
2023-01-30T02:34:51.108Z,25.23
2023-01-30T02:36:48.989Z,23.70
2023-01-30T02:38:34.869Z,25.13
2023-01-30T02:40:44.420Z,24.77
2023-01-30T02:42:31.131Z,24.65
2023-01-30T02:44:17.008Z,24.70
2023-01-30T02:45:59.544Z,26.20
2023-01-30T02:47:35.368Z,24.63
2023-01-30T02:49:10.915Z,25.20
2023-01-30T02:50:51.864Z,26.23
2023-01-30T02:52:24.824Z,24.10
2023-01-30T02:53:56.989Z,25.60
2023-01-30T02:55:29.709Z,24.70
2023-01-30T02:57:02.351Z,23.80
2023-01-30T02:58:44.171Z,23.50
2023-01-30T03:00:42.823Z,24.60
2023-01-30T03:02:14.897Z,25.60
2023-01-30T03:04:32.139Z,24.70
2023-01-30T03:06:16.678Z,24.65
2023-01-30T03:08:32.730Z,24.60
2023-01-30T03:10:09.119Z,25.20
2023-01-30T03:11:51.920Z,23.63
2023-01-30T03:13:35.320Z,25.27
2023-01-30T03:15:16.664Z,24.48
2023-01-30T03:16:50.118Z,26.17
2023-01-30T03:18:22.479Z,25.33
2023-01-30T03:19:55.578Z,23.05
2023-01-30T03:21:27.624Z,25.85
2023-01-30T03:22:59.780Z,25.75
2023-01-30T03:24:31.839Z,23.83
2023-01-30T03:26:09.045Z,27.00
2023-01-30T03:27:41.486Z,25.00
2023-01-30T03:29:22.265Z,24.88
2023-01-30T03:30:55.393Z,24.00
2023-01-30T03:32:27.803Z,23.88
2023-01-30T03:34:01.274Z,23.98
2023-01-30T03:35:34.068Z,23.88
2023-01-30T03:37:07.391Z,24.80
2023-01-30T03:38:41.152Z,25.17
2023-01-30T03:40:14.556Z,25.95
2023-01-30T03:41:46.805Z,24.40
2023-01-30T03:43:21.740Z,23.08
2023-01-30T03:44:56.847Z,25.35
2023-01-30T03:46:29.024Z,25.50
2023-01-30T03:48:01.099Z,26.10
2023-01-30T03:49:33.156Z,26.33
2023-01-30T03:51:05.510Z,24.63
2023-01-30T03:52:37.683Z,24.60
2023-01-30T03:54:14.013Z,24.77
2023-01-30T03:55:46.086Z,25.63
2023-01-30T03:57:18.215Z,24.00
2023-01-30T03:58:50.458Z,26.95
2023-01-30T04:00:26.863Z,25.30
2023-01-30T04:02:01.732Z,25.17
2023-01-30T04:03:34.367Z,25.63
2023-01-30T04:05:06.744Z,24.85
2023-01-30T04:06:38.891Z,23.95
2023-01-30T04:08:11.665Z,25.23
2023-01-30T04:09:43.876Z,25.08
2023-01-30T04:11:16.875Z,27.35
2023-01-30T04:12:49.201Z,26.03
2023-01-30T04:14:21.691Z,26.60
2023-01-30T04:16:21.586Z,25.13
2023-01-30T04:18:18.389Z,26.55
2023-01-30T04:19:56.103Z,25.98
2023-01-30T04:21:28.219Z,20.40
2023-01-30T04:23:00.888Z,25.30
2023-01-30T04:24:32.997Z,25.70
2023-01-30T04:26:06.383Z,25.70
2023-01-30T04:27:41.612Z,25.38
2023-01-30T04:29:20.020Z,27.65
2023-01-30T04:30:55.093Z,25.83
2023-01-30T04:32:45.151Z,26.73
2023-01-30T04:34:18.612Z,25.13
2023-01-30T04:36:00.338Z,26.08
2023-01-30T04:37:32.815Z,25.73
2023-01-30T04:39:05.033Z,28.67
2023-01-30T04:40:37.699Z,27.30
2023-01-30T04:42:09.882Z,25.90
2023-01-30T04:43:50.318Z,26.70
2023-01-30T04:45:32.101Z,27.30
2023-01-30T04:47:04.160Z,26.13
2023-01-30T04:48:36.334Z,27.13
2023-01-30T04:50:09.665Z,28.20
2023-01-30T04:51:45.035Z,27.20
2023-01-30T04:53:17.727Z,26.08
2023-01-30T04:54:49.871Z,27.13
2023-01-30T04:56:23.175Z,27.65
2023-01-30T04:57:55.850Z,27.05
2023-01-30T04:59:30.008Z,27.73
2023-01-30T05:01:14.445Z,28.20
2023-01-30T05:02:46.482Z,25.67
2023-01-30T05:04:18.624Z,24.23
2023-01-30T05:05:50.836Z,25.33
2023-01-30T05:07:22.907Z,26.05
2023-01-30T05:08:56.539Z,24.98
2023-01-30T05:10:28.724Z,24.75
2023-01-30T05:12:00.959Z,25.92
2023-01-30T05:13:33.543Z,23.55
2023-01-30T05:15:07.050Z,23.38
2023-01-30T05:16:39.134Z,24.73
2023-01-30T05:18:13.611Z,24.40
2023-01-30T05:19:45.782Z,23.45
2023-01-30T05:21:22.851Z,23.95
2023-01-30T05:22:54.911Z,22.20
2023-01-30T05:24:26.967Z,21.77
2023-01-30T05:25:59.152Z,23.00
2023-01-30T05:27:31.159Z,21.90
2023-01-30T05:29:03.388Z,22.85
2023-01-30T05:30:35.395Z,23.73
2023-01-30T05:32:18.872Z,23.05
2023-01-30T05:33:52.641Z,24.33
2023-01-30T05:35:26.033Z,23.63
2023-01-30T05:36:58.118Z,24.63
2023-01-30T05:38:30.329Z,24.90
2023-01-30T05:40:02.357Z,24.38
2023-01-30T05:41:37.215Z,25.33
2023-01-30T05:43:11.333Z,25.25
2023-01-30T05:44:43.376Z,25.65
2023-01-30T05:46:18.558Z,23.33
2023-01-30T05:47:53.585Z,25.65
2023-01-30T05:49:37.117Z,24.90
2023-01-30T05:51:29.380Z,24.80
2023-01-30T05:53:06.506Z,25.20
2023-01-30T05:54:55.177Z,25.17
2023-01-30T05:56:27.437Z,25.90
2023-01-30T05:58:17.056Z,25.30
2023-01-30T05:59:49.126Z,25.63
2023-01-30T06:01:22.338Z,24.52
2023-01-30T06:02:54.717Z,25.70
2023-01-30T06:04:27.150Z,26.15
2023-01-30T06:05:59.352Z,25.58
2023-01-30T06:07:32.255Z,25.65
2023-01-30T06:10:39.821Z,25.27
2023-01-30T06:12:12.080Z,26.10
2023-01-30T06:13:44.665Z,26.45
2023-01-30T06:15:17.230Z,26.73
2023-01-30T06:16:49.698Z,26.45
2023-01-30T06:18:24.240Z,27.23
2023-01-30T06:20:02.131Z,25.73
2023-01-30T06:21:34.741Z,27.17
2023-01-30T06:23:10.291Z,25.92
2023-01-30T06:24:42.985Z,27.23
2023-01-30T06:26:19.074Z,25.92
2023-01-30T06:27:51.649Z,27.13
2023-01-30T06:29:28.200Z,25.83
2023-01-30T06:31:12.036Z,26.50
2023-01-30T06:32:45.623Z,27.00
2023-01-30T06:34:17.679Z,26.52
2023-01-30T06:35:51.223Z,26.57
2023-01-30T06:37:23.355Z,26.17
2023-01-30T06:38:58.411Z,25.25
2023-01-30T06:40:32.442Z,25.55
2023-01-30T06:42:04.820Z,26.42
2023-01-30T06:43:36.970Z,25.17
2023-01-30T06:45:11.487Z,25.75
2023-01-30T06:46:43.656Z,25.75
2023-01-30T06:48:15.869Z,24.50
2023-01-30T06:49:49.698Z,21.13
2023-01-30T06:51:24.445Z,25.33
2023-01-30T06:53:03.037Z,26.77
2023-01-30T06:54:35.305Z,23.23
2023-01-30T06:56:07.683Z,25.45
2023-01-30T06:57:39.922Z,25.00
2023-01-30T06:59:12.024Z,25.77
2023-01-30T07:00:45.277Z,24.45
2023-01-30T07:02:17.935Z,25.38
2023-01-30T07:03:50.054Z,22.40
2023-01-30T07:05:23.296Z,24.52
2023-01-30T07:06:55.560Z,24.00
2023-01-30T07:08:58.778Z,23.95
2023-01-30T07:10:32.745Z,21.88
2023-01-30T07:12:08.177Z,22.25
2023-01-30T07:13:40.358Z,22.30
2023-01-30T07:15:20.001Z,22.23
2023-01-30T07:16:53.442Z,20.27
2023-01-30T07:18:25.751Z,19.95
2023-01-30T07:19:58.637Z,21.23
2023-01-30T07:23:05.461Z,19.08
2023-01-30T07:24:40.126Z,20.30
2023-01-30T07:26:22.000Z,20.30
2023-01-30T07:28:02.328Z,19.35
2023-01-30T07:29:39.496Z,17.27
2023-01-30T07:31:11.868Z,18.45
2023-01-30T07:32:56.090Z,18.23
2023-01-30T07:34:30.690Z,19.58
2023-01-30T07:36:07.795Z,19.15
2023-01-30T07:37:43.013Z,18.00
2023-01-30T07:39:26.694Z,17.75
2023-01-30T07:40:59.092Z,18.08
2023-01-30T07:42:31.498Z,17.13
2023-01-30T07:44:37.323Z,17.17
2023-01-30T07:46:09.562Z,17.98
2023-01-30T07:47:41.940Z,15.50
2023-01-30T07:49:17.649Z,15.30
2023-01-30T07:50:53.122Z,18.92
2023-01-30T07:52:36.841Z,13.73
2023-01-30T07:54:15.699Z,14.98
2023-01-30T07:55:50.389Z,12.85
2023-01-30T07:57:22.856Z,15.50
2023-01-30T07:58:56.142Z,13.80
2023-01-30T08:00:36.725Z,13.20
2023-01-30T08:02:13.468Z,11.65
2023-01-30T08:03:57.627Z,10.13
2023-01-30T08:05:32.751Z,10.93
2023-01-30T08:07:08.178Z,11.30
2023-01-30T08:08:46.544Z,9.90
2023-01-30T08:10:29.223Z,8.38
2023-01-30T08:12:01.366Z,8.45
2023-01-30T08:13:35.201Z,9.32
2023-01-30T08:15:08.945Z,7.53
2023-01-30T08:16:41.084Z,8.30
2023-01-30T08:18:13.231Z,7.30
2023-01-30T08:19:46.378Z,6.22
2023-01-30T10:05:06.088Z,2.55
2023-01-30T10:31:43.891Z,3.03
2023-01-30T10:45:28.043Z,2.30
2023-01-30T10:47:47.503Z,2.95
2023-01-30T10:52:13.199Z,2.60
2023-01-30T10:59:46.906Z,2.35
2023-01-30T11:06:00.155Z,2.45
2023-01-30T11:07:03.139Z,2.03
2023-01-30T11:09:07.374Z,2.53
2023-01-30T11:10:48.429Z,3.88
2023-01-30T11:13:51.801Z,2.33
2023-01-30T11:15:38.154Z,1.90
2023-01-30T11:20:26.880Z,2.25
2023-01-30T11:24:24.786Z,2.75
2023-01-30T11:24:59.290Z,1.95
2023-01-30T11:26:48.178Z,2.75
2023-01-30T11:28:40.034Z,2.47
2023-01-30T11:30:30.117Z,1.70
2023-01-30T11:35:42.477Z,2.35
2023-01-30T11:37:46.604Z,2.05
2023-01-30T11:39:20.349Z,1.80
2023-01-30T11:42:13.098Z,1.67
2023-01-30T11:43:55.765Z,1.80
2023-01-30T11:46:07.217Z,2.03
2023-01-30T11:49:09.097Z,1.80
2023-01-30T11:50:52.903Z,2.72
2023-01-30T11:52:37.036Z,2.63
2023-01-30T11:54:18.570Z,2.47
2023-01-30T11:56:45.561Z,2.30
2023-01-30T11:58:30.323Z,2.05
2023-01-30T12:00:25.540Z,1.40
2023-01-30T12:03:09.300Z,2.78
2023-01-30T12:04:50.443Z,2.33
2023-01-30T12:06:38.045Z,3.05
2023-01-30T12:09:01.303Z,1.95
2023-01-30T12:10:54.242Z,2.45
2023-01-30T12:12:55.067Z,1.85
2023-01-30T12:14:59.580Z,1.90
2023-01-30T12:16:50.056Z,3.97
2023-01-30T12:19:48.609Z,2.00
2023-01-30T12:21:44.453Z,2.30
2023-01-30T12:23:30.193Z,2.63
2023-01-30T12:25:31.506Z,3.47
2023-01-30T12:27:27.523Z,1.70
2023-01-30T12:29:25.261Z,1.88
2023-01-30T12:31:10.860Z,2.35
2023-01-30T12:32:43.052Z,2.60
2023-01-30T12:34:38.400Z,2.35
2023-01-30T12:37:06.321Z,1.80
2023-01-30T12:38:58.565Z,3.13
2023-01-30T12:40:44.153Z,4.03
2023-01-30T12:42:34.931Z,2.55
2023-01-30T12:44:51.638Z,2.28
2023-01-30T12:46:43.046Z,2.80
2023-01-30T12:48:44.291Z,2.33
2023-01-30T12:50:56.509Z,2.30
2023-01-30T12:53:35.429Z,2.10
2023-01-30T12:55:27.657Z,3.47
2023-01-30T12:57:37.044Z,2.35
2023-01-30T12:59:48.676Z,3.15
2023-01-30T13:01:59.905Z,2.58
2023-01-30T13:04:04.585Z,2.97
2023-01-30T13:06:10.525Z,2.78
2023-01-30T13:08:04.175Z,2.95
2023-01-30T13:09:57.828Z,2.65
2023-01-30T13:11:45.023Z,3.03
2023-01-30T13:13:32.805Z,2.70
2023-01-30T13:15:17.150Z,2.38
2023-01-30T13:16:54.587Z,3.38
2023-01-30T13:18:39.851Z,3.35
2023-01-30T13:20:15.760Z,2.63
2023-01-30T13:22:23.196Z,2.47
2023-01-30T13:24:17.570Z,3.60
2023-01-30T13:26:09.224Z,2.15
2023-01-30T13:27:48.685Z,3.50
2023-01-30T13:29:36.981Z,2.75
2023-01-30T13:31:22.686Z,5.45
2023-01-30T13:33:09.204Z,2.90
2023-01-30T13:34:44.990Z,4.13
2023-01-30T13:36:25.314Z,2.40
2023-01-30T13:37:57.913Z,2.60
2023-01-30T13:39:50.760Z,3.08
2023-01-30T13:41:27.909Z,3.20
2023-01-30T13:43:16.047Z,3.00
2023-01-30T13:44:52.159Z,2.63
2023-01-30T13:46:32.277Z,2.42
2023-01-30T13:48:22.666Z,2.65
2023-01-30T13:50:24.324Z,3.08
2023-01-30T13:52:19.225Z,2.28
2023-01-30T13:54:00.642Z,2.55
2023-01-30T13:55:43.324Z,3.05
2023-01-30T13:57:57.122Z,2.75
2023-01-30T14:00:11.085Z,3.00
2023-01-30T14:02:14.968Z,2.17
2023-01-30T14:07:22.593Z,3.58
2023-01-30T14:11:42.810Z,3.08
2023-01-30T14:11:54.541Z,2.35
2023-01-30T14:17:10.430Z,2.63
2023-01-30T14:24:34.256Z,3.05
2023-01-30T14:29:41.781Z,3.90
2023-01-30T14:35:01.995Z,3.47
2023-01-30T14:36:58.710Z,3.72
2023-01-30T14:38:58.216Z,4.00
2023-01-30T14:40:55.297Z,2.92
2023-01-30T14:43:15.077Z,2.33
2023-01-30T14:46:17.684Z,2.47
2023-01-30T14:51:09.400Z,3.53
2023-01-30T14:52:55.195Z,2.60
2023-01-30T14:57:20.097Z,3.42
2023-01-30T14:59:13.530Z,2.45
2023-01-30T15:00:45.591Z,3.15
2023-01-30T15:02:26.588Z,3.08
2023-01-30T15:03:58.647Z,3.03
2023-01-30T15:05:44.263Z,2.47
2023-01-30T15:07:39.080Z,3.15
2023-01-30T15:09:17.727Z,2.88
2023-01-30T15:10:58.524Z,2.83
2023-01-30T15:12:33.199Z,3.08
2023-01-30T15:14:12.720Z,3.00
2023-01-30T15:15:53.342Z,3.15
2023-01-30T15:18:07.238Z,4.13
2023-01-30T15:20:16.481Z,3.42
2023-01-30T15:21:57.567Z,3.05
2023-01-30T15:24:31.580Z,3.67
2023-01-30T15:26:52.422Z,2.83
2023-01-30T15:28:52.919Z,2.72
2023-01-30T15:31:02.761Z,2.22
2023-01-30T15:32:38.564Z,4.22
2023-01-30T15:34:22.761Z,3.08
2023-01-30T15:35:54.751Z,3.47
2023-01-30T15:37:30.620Z,5.03
2023-01-30T15:39:07.346Z,4.05
2023-01-30T15:40:40.887Z,4.00
2023-01-30T15:42:15.184Z,3.08
2023-01-30T15:44:15.762Z,2.90
2023-01-30T15:46:26.752Z,3.20
2023-01-30T15:48:07.939Z,2.88
2023-01-30T15:49:52.181Z,3.58
2023-01-30T15:51:27.557Z,3.22
2023-01-30T15:53:02.111Z,3.35
2023-01-30T15:54:34.633Z,3.78
2023-01-30T15:56:11.678Z,2.88
2023-01-30T15:57:48.237Z,3.00
2023-01-30T15:59:48.735Z,2.70
2023-01-30T16:01:24.830Z,3.63
2023-01-30T16:03:03.113Z,3.22
2023-01-30T16:04:35.199Z,3.25
2023-01-30T16:06:07.913Z,3.00
2023-01-30T16:07:39.948Z,2.95
2023-01-30T16:09:25.569Z,3.17
2023-01-30T16:10:58.260Z,3.15
2023-01-30T16:12:31.180Z,3.40
2023-01-30T16:15:50.850Z,3.22
2023-01-30T16:17:22.902Z,3.10
2023-01-30T16:19:22.498Z,2.88
2023-01-30T16:21:02.050Z,2.85
2023-01-30T16:22:35.236Z,2.75
2023-01-30T16:24:14.485Z,2.70
2023-01-30T16:25:47.610Z,2.85
2023-01-30T16:27:33.135Z,3.45
2023-01-30T16:29:07.284Z,4.03
2023-01-30T16:30:42.857Z,2.85
2023-01-30T16:32:15.129Z,3.00
2023-01-30T16:33:53.120Z,2.80
2023-01-30T16:35:27.270Z,3.10
2023-01-30T16:37:08.660Z,2.70
2023-01-30T16:38:48.144Z,2.75
2023-01-30T16:40:43.919Z,3.35
2023-01-30T16:42:27.958Z,2.75
2023-01-30T16:44:20.782Z,2.92
2023-01-30T16:45:52.964Z,3.60
2023-01-30T16:47:26.305Z,3.42
2023-01-30T16:49:03.157Z,2.83
2023-01-30T16:50:35.122Z,3.00
2023-01-30T16:52:26.737Z,3.37
2023-01-30T16:54:02.946Z,2.70
2023-01-30T16:55:40.221Z,2.53
2023-01-30T16:57:40.652Z,3.15
2023-01-30T16:59:20.049Z,3.88
2023-01-30T17:00:52.072Z,2.92
2023-01-30T17:02:38.283Z,2.80
2023-01-30T17:04:19.033Z,3.35
2023-01-30T17:05:51.362Z,3.10
2023-01-30T17:07:38.173Z,2.83
2023-01-30T17:09:46.105Z,3.28
2023-01-30T17:11:44.345Z,3.03
2023-01-30T17:13:31.211Z,2.83
2023-01-30T17:15:14.721Z,4.03
2023-01-30T17:17:07.767Z,3.03
2023-01-30T17:18:39.692Z,3.83
2023-01-30T17:20:13.336Z,3.33
2023-01-30T17:21:53.171Z,3.83
2023-01-30T17:23:33.482Z,5.05
2023-01-30T17:25:11.711Z,4.07
2023-01-30T17:26:44.188Z,3.40
2023-01-30T17:28:21.400Z,3.90
2023-01-30T17:29:53.425Z,3.38
2023-01-30T17:31:25.464Z,3.30
2023-01-30T17:32:57.561Z,3.65
2023-01-30T17:34:29.700Z,3.33
2023-01-30T17:36:06.950Z,3.17
2023-01-30T17:37:39.007Z,3.25
2023-01-30T17:39:17.612Z,2.73
2023-01-30T17:40:51.000Z,3.40
2023-01-30T17:42:23.084Z,2.83
2023-01-30T17:43:55.021Z,3.60
2023-01-30T17:45:27.161Z,3.83
2023-01-30T17:46:59.169Z,3.65
2023-01-30T17:48:31.152Z,4.33
2023-01-30T17:50:04.276Z,4.43
2023-01-30T17:51:36.178Z,3.22
2023-01-30T17:53:08.033Z,2.78
2023-01-30T17:54:40.050Z,4.07
2023-01-30T17:56:21.363Z,3.83
2023-01-30T17:57:54.399Z,2.92
2023-01-30T17:59:26.511Z,2.85
2023-01-30T18:00:58.438Z,3.60
2023-01-30T18:02:32.364Z,3.40
2023-01-30T18:04:04.531Z,3.00
2023-01-30T18:05:36.648Z,3.10
2023-01-30T18:07:13.632Z,3.35
2023-01-30T18:08:45.806Z,3.80
2023-01-30T18:10:20.187Z,4.07
2023-01-30T18:11:52.288Z,3.35
2023-01-30T18:13:24.211Z,4.13
2023-01-30T18:14:56.100Z,3.90
2023-01-30T18:16:33.077Z,3.72
2023-01-30T18:18:05.078Z,4.20
2023-01-30T18:19:36.979Z,4.00
2023-01-30T18:21:08.958Z,4.78
2023-01-30T18:22:40.935Z,4.20
2023-01-30T18:24:13.754Z,4.82
2023-01-30T18:25:45.729Z,3.75
2023-01-30T18:27:17.918Z,3.47
2023-01-30T18:28:49.969Z,2.90
2023-01-30T18:30:24.663Z,3.43
2023-01-30T18:31:57.650Z,3.88
2023-01-30T18:35:01.465Z,4.72
2023-01-30T18:36:34.848Z,3.00
2023-01-30T18:38:06.775Z,3.83
2023-01-30T18:39:38.773Z,3.45
2023-01-30T18:41:22.678Z,3.03
2023-01-30T18:42:54.672Z,4.05
2023-01-30T18:44:26.607Z,2.85
2023-01-30T18:46:04.116Z,3.20
2023-01-30T18:47:36.065Z,3.90
2023-01-30T18:49:08.528Z,4.03
2023-01-30T18:50:40.489Z,2.90
2023-01-30T18:52:12.443Z,3.40
2023-01-30T18:53:44.585Z,4.35
2023-01-30T18:55:16.957Z,4.20
2023-01-30T18:56:48.818Z,3.60
2023-01-30T18:58:20.795Z,2.35
2023-01-30T18:59:52.780Z,3.47
2023-01-30T19:01:26.948Z,4.13
2023-01-30T19:02:59.732Z,4.15
2023-01-30T19:04:31.670Z,3.90
2023-01-30T19:06:03.927Z,3.75
2023-01-30T19:07:36.393Z,4.07
2023-01-30T19:09:08.960Z,3.70
2023-01-30T19:10:44.929Z,3.72
2023-01-30T19:12:35.268Z,2.60
2023-01-30T19:14:08.067Z,3.47
2023-01-30T19:15:40.030Z,3.58
2023-01-30T19:17:14.381Z,3.08
2023-01-30T19:18:46.531Z,2.30
2023-01-30T19:20:20.737Z,3.00
2023-01-30T19:21:54.099Z,2.55
2023-01-30T19:23:27.879Z,3.40
2023-01-30T19:24:59.858Z,2.90
2023-01-30T19:26:31.834Z,2.80
2023-01-30T19:28:04.951Z,3.25
2023-01-30T19:29:36.957Z,3.53
2023-01-30T19:31:10.081Z,2.65
2023-01-30T19:32:42.191Z,2.30
2023-01-30T19:34:14.232Z,2.27
2023-01-30T19:35:46.753Z,2.55
2023-01-30T19:37:18.706Z,1.83
2023-01-30T19:38:52.280Z,2.90
2023-01-30T19:40:26.805Z,2.20
2023-01-30T19:41:58.742Z,2.38
2023-01-30T19:43:30.828Z,2.17
2023-01-30T19:45:02.853Z,3.13
2023-01-30T19:46:35.745Z,2.75
2023-01-30T19:48:09.488Z,2.55
2023-01-30T19:49:42.439Z,2.45
2023-01-30T19:54:44.360Z,2.03
2023-01-30T19:57:49.173Z,1.75
2023-01-30T20:00:02.425Z,1.73
2023-01-30T20:01:40.103Z,1.88
2023-01-30T20:03:16.559Z,2.83
2023-01-30T20:04:48.684Z,2.33
2023-01-30T20:06:24.987Z,2.92
2023-01-30T20:08:00.150Z,2.30
2023-01-30T20:09:32.900Z,2.03
2023-01-30T20:11:17.975Z,3.55
2023-01-30T20:12:59.031Z,2.80
2023-01-30T20:14:32.370Z,2.83
2023-01-30T20:16:10.341Z,4.95
2023-01-30T20:17:42.563Z,2.47
2023-01-30T20:19:33.784Z,3.20
2023-01-30T20:21:15.536Z,3.22
2023-01-30T20:22:53.366Z,3.05
2023-01-30T20:24:35.896Z,2.90
2023-01-30T20:26:17.358Z,3.88
2023-01-30T20:27:59.967Z,3.45
2023-01-30T20:29:34.291Z,3.92
2023-01-30T20:31:21.756Z,3.28
2023-01-30T20:32:57.590Z,4.90
2023-01-30T20:34:30.007Z,3.28
2023-01-30T20:36:06.958Z,2.80
2023-01-30T20:37:39.114Z,4.93
2023-01-30T20:39:11.812Z,4.22
2023-01-30T20:40:47.907Z,3.85
2023-01-30T20:42:20.154Z,3.40
2023-01-30T20:43:56.675Z,3.92
2023-01-30T20:45:28.704Z,3.85
2023-01-30T20:47:00.857Z,4.50
2023-01-30T20:48:37.294Z,3.92
2023-01-30T20:50:11.693Z,3.70
2023-01-30T20:51:47.628Z,4.30
2023-01-30T20:53:21.782Z,4.60
2023-01-30T20:54:57.376Z,4.88
2023-01-30T20:56:37.607Z,4.63
2023-01-30T20:58:14.651Z,4.85
2023-01-30T20:59:47.053Z,5.95
2023-01-30T21:01:21.710Z,4.90
2023-01-30T21:02:53.838Z,4.43
2023-01-30T21:04:25.997Z,4.53
2023-01-30T21:06:01.573Z,3.85
2023-01-30T21:07:33.650Z,4.05
2023-01-30T21:09:06.897Z,5.67
2023-01-30T21:10:46.683Z,5.55
2023-01-30T21:12:20.173Z,5.22
2023-01-30T21:13:52.263Z,5.70
2023-01-30T21:15:24.426Z,6.83
2023-01-30T21:16:56.518Z,5.22
2023-01-30T21:18:34.696Z,4.13
2023-01-30T21:20:07.180Z,5.20
2023-01-30T21:21:42.035Z,4.85
2023-01-30T21:23:15.141Z,4.88
2023-01-30T21:24:47.220Z,4.60
2023-01-30T21:26:20.463Z,4.50
2023-01-30T21:27:52.539Z,4.40
2023-01-30T21:29:26.387Z,3.65
2023-01-30T21:31:09.564Z,4.55
2023-01-30T21:32:41.862Z,4.45
2023-01-30T21:34:14.125Z,3.75
2023-01-30T21:35:46.324Z,4.93
2023-01-30T21:37:37.918Z,5.32
2023-01-30T21:39:32.092Z,5.60
2023-01-30T21:41:22.763Z,5.55
2023-01-30T21:43:13.460Z,4.03
2023-01-30T21:44:45.552Z,5.20
2023-01-30T21:46:17.711Z,4.50
2023-01-30T21:47:52.765Z,5.90
2023-01-30T21:49:25.605Z,4.57
2023-01-30T21:50:57.986Z,4.93
2023-01-30T21:52:32.799Z,4.90
2023-01-30T21:54:04.939Z,4.32
2023-01-30T21:55:37.071Z,4.82
2023-01-30T21:57:09.170Z,3.92
2023-01-30T21:58:41.325Z,4.47
2023-01-30T22:00:13.843Z,3.67
2023-01-30T22:01:46.153Z,5.13
2023-01-30T22:03:18.262Z,4.32
2023-01-30T22:04:50.450Z,5.00
2023-01-30T22:06:22.644Z,4.45
2023-01-30T22:07:54.653Z,3.90
2023-01-30T22:09:26.668Z,4.65
2023-01-30T22:11:12.814Z,4.45
2023-01-30T22:12:45.086Z,4.22
2023-01-30T22:14:17.824Z,4.85
2023-01-30T22:15:49.836Z,4.93
2023-01-30T22:17:21.868Z,4.93
2023-01-30T22:19:00.598Z,4.53
2023-01-30T22:20:32.681Z,4.13
2023-01-30T22:22:05.177Z,4.25
2023-01-30T22:23:39.671Z,5.95
2023-01-30T22:25:11.924Z,3.88
2023-01-30T22:26:44.026Z,3.83
2023-01-30T22:28:16.113Z,5.47
2023-01-30T22:29:48.155Z,3.88
2023-01-30T22:31:20.895Z,4.77
2023-01-30T22:32:55.920Z,4.43
2023-01-30T22:34:27.936Z,5.63
2023-01-30T22:36:00.901Z,4.00
2023-01-30T22:39:06.154Z,3.88
2023-01-30T22:40:38.611Z,4.00
2023-01-30T22:42:11.028Z,5.18
2023-01-30T22:43:51.165Z,4.68
2023-01-30T22:45:23.162Z,3.53
2023-01-30T22:46:55.252Z,3.80
2023-01-30T22:48:28.689Z,5.15
2023-01-30T22:50:00.810Z,4.95
2023-01-30T22:51:38.471Z,4.03
2023-01-30T22:53:10.466Z,3.72
2023-01-30T22:54:42.471Z,5.10
2023-01-30T22:56:16.871Z,5.57
2023-01-30T22:57:49.083Z,5.03
2023-01-30T22:59:22.066Z,4.22
2023-01-30T23:00:55.724Z,6.45
2023-01-30T23:02:27.915Z,4.82
2023-01-30T23:04:02.355Z,4.90
2023-01-30T23:05:34.516Z,6.30
2023-01-30T23:07:06.554Z,5.05
2023-01-30T23:08:40.617Z,5.55
2023-01-30T23:10:12.784Z,4.18
2023-01-30T23:12:10.864Z,4.68
2023-01-30T23:13:44.676Z,4.50
2023-01-30T23:15:17.025Z,4.78
2023-01-30T23:16:49.382Z,4.30
2023-01-30T23:18:40.246Z,4.90
2023-01-30T23:20:12.567Z,5.65
2023-01-30T23:21:46.292Z,5.10
2023-01-30T23:23:18.266Z,4.35
2023-01-30T23:24:51.483Z,5.40
2023-01-30T23:26:25.158Z,5.45
2023-01-30T23:27:57.196Z,3.63
2023-01-30T23:29:29.477Z,3.67
2023-01-30T23:31:16.948Z,4.28
2023-01-30T23:32:48.959Z,3.97
2023-01-30T23:34:20.950Z,4.05
2023-01-30T23:35:52.891Z,5.10
2023-01-30T23:37:44.874Z,3.85
2023-01-30T23:39:17.395Z,3.17
2023-01-30T23:40:49.756Z,5.20
2023-01-30T23:42:22.389Z,4.28
2023-01-30T23:43:55.262Z,5.03
2023-01-30T23:45:30.132Z,5.50
2023-01-30T23:47:02.223Z,4.20
2023-01-30T23:48:34.247Z,4.83
2023-01-30T23:50:06.570Z,4.10
2023-01-30T23:51:40.441Z,3.85
2023-01-30T23:53:12.492Z,3.70
2023-01-30T23:54:45.005Z,4.00
2023-01-30T23:56:18.386Z,3.25
2023-01-30T23:57:50.720Z,3.95
2023-01-30T23:59:22.862Z,3.13
